Time;durP1;ratioP1;P1;durP2;ratioP2;P2;SDS_P1;SDS_P2;PMS_P1;PMS_P2;Temp;Humidity;BMP_temperature;BMP_pressure;BME280_temperature;BME280_humidity;BME280_pressure;Samples;Min_cycle;Max_cycle;Signal;HPM_P1;HPM_P2
2021/12/20 00:00:45;;;;;;;21.70;13.13;;;2.30;99.90;;;;;;4858946;29;20453;-91
2021/12/20 00:03:11;;;;;;;23.80;12.57;;;2.20;99.90;;;;;;4853590;29;20484;-89
2021/12/20 00:05:37;;;;;;;24.27;11.10;;;2.30;99.90;;;;;;4864720;29;21210;-90
2021/12/20 00:08:03;;;;;;;22.90;12.13;;;2.30;99.90;;;;;;4862725;29;20197;-90
2021/12/20 00:10:29;;;;;;;21.70;11.77;;;2.30;99.90;;;;;;4854084;29;20450;-90
2021/12/20 00:12:54;;;;;;;30.30;13.50;;;2.20;99.90;;;;;;4848963;29;21264;-90
2021/12/20 00:15:20;;;;;;;19.07;12.53;;;2.30;99.90;;;;;;4866624;29;20252;-90
2021/12/20 00:17:46;;;;;;;23.40;12.87;;;2.30;99.90;;;;;;4853250;29;20196;-89
2021/12/20 00:20:13;;;;;;;22.17;12.77;;;2.30;99.90;;;;;;4851716;29;20446;-90
2021/12/20 00:22:40;;;;;;;26.53;14.80;;;2.30;99.90;;;;;;4856773;29;20490;-90
2021/12/20 00:25:06;;;;;;;24.20;12.07;;;2.30;99.90;;;;;;4857722;29;20490;-90
2021/12/20 00:27:32;;;;;;;26.13;12.80;;;2.30;99.90;;;;;;4857555;29;20471;-90
2021/12/20 00:29:58;;;;;;;21.70;12.03;;;2.30;99.90;;;;;;4872914;29;20450;-91
2021/12/20 00:32:24;;;;;;;21.50;11.43;;;2.30;99.90;;;;;;4858655;29;20455;-89
2021/12/20 00:34:50;;;;;;;20.77;11.33;;;2.30;99.90;;;;;;4851277;29;21103;-89
2021/12/20 00:42:45;;;;;;;20.67;11.37;;;2.20;99.90;;;;;;4871152;29;20461;-89
2021/12/20 00:45:12;;;;;;;24.23;11.83;;;2.20;99.90;;;;;;4853376;29;21326;-89
2021/12/20 00:47:39;;;;;;;26.40;12.33;;;2.20;99.90;;;;;;4870040;29;20456;-90
2021/12/20 00:50:07;;;;;;;21.07;12.00;;;2.20;99.90;;;;;;4867720;29;20510;-87
2021/12/20 00:52:33;;;;;;;19.13;10.83;;;2.30;99.90;;;;;;4864640;29;20457;-90
2021/12/20 00:54:59;;;;;;;23.73;12.40;;;2.30;99.90;;;;;;4868732;29;20473;-91
2021/12/20 00:57:25;;;;;;;21.33;11.40;;;2.30;99.90;;;;;;4856644;29;20445;-91
2021/12/20 00:59:50;;;;;;;22.70;12.13;;;2.20;99.90;;;;;;4854709;29;20460;-90
2021/12/20 01:02:16;;;;;;;20.67;11.67;;;2.40;99.90;;;;;;4849929;29;20280;-90
2021/12/20 01:04:42;;;;;;;22.47;12.10;;;2.40;99.90;;;;;;4853215;29;20200;-89
2021/12/20 01:07:08;;;;;;;22.47;12.20;;;2.40;99.90;;;;;;4833324;29;20485;-89
2021/12/20 01:09:34;;;;;;;20.67;11.37;;;2.40;99.90;;;;;;4842579;29;20517;-90
2021/12/20 01:12:04;;;;;;;23.50;11.70;;;2.40;99.90;;;;;;4838176;29;20204;-89
2021/12/20 01:14:33;;;;;;;24.43;12.50;;;2.40;99.90;;;;;;4846814;29;20445;-90
2021/12/20 01:17:05;;;;;;;21.97;13.10;;;2.40;99.90;;;;;;4845546;29;20897;-90
2021/12/20 01:19:31;;;;;;;26.20;12.90;;;2.20;99.90;;;;;;4846517;29;20456;-90
2021/12/20 01:21:57;;;;;;;25.07;12.93;;;2.30;99.90;;;;;;4844280;29;20458;-90
2021/12/20 01:24:23;;;;;;;24.97;11.23;;;2.30;99.90;;;;;;4843723;29;20445;-90
2021/12/20 01:26:48;;;;;;;24.83;12.30;;;2.30;99.90;;;;;;4854450;29;20214;-90
2021/12/20 01:29:15;;;;;;;25.30;12.03;;;2.40;99.90;;;;;;4864682;29;20490;-90
2021/12/20 01:31:41;;;;;;;23.30;11.80;;;2.30;99.90;;;;;;4843842;29;20286;-90
2021/12/20 01:34:06;;;;;;;23.93;12.60;;;2.30;99.90;;;;;;4850690;29;20442;-90
2021/12/20 01:36:32;;;;;;;22.80;11.10;;;2.30;99.90;;;;;;4847956;29;20572;-90
2021/12/20 01:38:58;;;;;;;21.37;10.43;;;2.30;99.90;;;;;;4846047;29;21361;-89
2021/12/20 01:41:23;;;;;;;23.40;11.57;;;2.40;99.90;;;;;;4841280;29;20295;-90
2021/12/20 01:43:49;;;;;;;19.97;10.60;;;2.40;99.90;;;;;;4866343;29;20235;-89
2021/12/20 01:46:15;;;;;;;24.03;12.50;;;2.40;99.90;;;;;;4864029;29;20199;-89
2021/12/20 01:48:43;;;;;;;21.80;11.40;;;2.40;99.90;;;;;;4852475;29;21190;-90
2021/12/20 01:51:43;;;;;;;18.70;11.60;;;2.40;99.90;;;;;;4859596;29;20515;-89
2021/12/20 01:54:04;;;;;;;16.57;10.13;;;2.30;99.90;;;;;;4862165;29;20941;-90
2021/12/20 01:56:33;;;;;;;24.23;12.93;;;2.30;99.90;;;;;;4862904;29;20576;-91
2021/12/20 01:59:04;;;;;;;17.63;9.80;;;2.20;99.90;;;;;;4849254;29;20267;-90
2021/12/20 02:01:30;;;;;;;22.37;11.10;;;2.30;99.90;;;;;;4849448;29;21385;-91
2021/12/20 02:04:01;;;;;;;20.90;11.00;;;2.30;99.90;;;;;;4850633;29;20472;-90
2021/12/20 02:06:38;;;;;;;22.30;11.80;;;2.40;99.90;;;;;;4852092;29;20457;-91
2021/12/20 02:09:13;;;;;;;23.30;11.50;;;2.30;99.90;;;;;;4847246;29;21006;-90
2021/12/20 02:11:40;;;;;;;25.80;12.13;;;2.30;99.90;;;;;;4846792;29;20807;-90
2021/12/20 02:14:08;;;;;;;21.30;12.20;;;2.40;99.90;;;;;;4839499;29;20654;-91
2021/12/20 02:16:34;;;;;;;20.60;11.87;;;2.30;99.90;;;;;;4846684;29;20843;-91
2021/12/20 02:19:09;;;;;;;24.27;11.80;;;2.30;99.90;;;;;;4841864;29;20443;-90
2021/12/20 02:21:35;;;;;;;21.43;11.33;;;2.30;99.90;;;;;;4840070;29;20543;-90
2021/12/20 02:24:02;;;;;;;25.70;12.50;;;2.20;99.90;;;;;;4846414;29;20460;-89
2021/12/20 02:26:28;;;;;;;23.03;11.83;;;2.10;99.90;;;;;;4848319;29;20508;-90
2021/12/20 02:28:56;;;;;;;25.80;10.87;;;2.10;99.90;;;;;;4838851;29;20970;-90
2021/12/20 02:39:22;;;;;;;24.23;11.80;;;2.30;99.90;;;;;;4856083;29;20529;-89
2021/12/20 02:41:51;;;;;;;24.13;12.33;;;2.30;99.90;;;;;;4842898;29;20928;-89
2021/12/20 02:44:19;;;;;;;20.10;11.70;;;2.30;99.90;;;;;;4848360;29;20534;-90
2021/12/20 02:47:03;;;;;;;22.67;11.77;;;2.20;99.90;;;;;;4848864;29;21332;-89
2021/12/20 02:49:29;;;;;;;25.50;12.70;;;2.20;99.90;;;;;;4857992;29;22245;-91
2021/12/20 02:52:01;;;;;;;26.83;12.40;;;2.20;99.90;;;;;;4849809;29;21151;-89
2021/12/20 02:54:27;;;;;;;24.17;11.70;;;2.20;99.90;;;;;;4848462;29;20184;-90
2021/12/20 02:56:52;;;;;;;23.10;11.47;;;2.10;99.90;;;;;;4865286;29;20474;-91
2021/12/20 02:59:18;;;;;;;29.33;12.50;;;2.20;99.90;;;;;;4860373;29;20288;-89
2021/12/20 03:02:13;;;;;;;29.30;13.70;;;2.10;99.90;;;;;;4852960;29;20196;-90
2021/12/20 03:04:39;;;;;;;21.67;10.47;;;2.10;99.90;;;;;;4846276;29;20448;-90
2021/12/20 03:07:10;;;;;;;23.37;12.30;;;2.10;99.90;;;;;;4853236;29;20553;-90
2021/12/20 03:09:40;;;;;;;23.10;10.77;;;2.20;99.90;;;;;;4867078;29;20460;-90
2021/12/20 03:12:08;;;;;;;22.40;12.37;;;2.20;99.90;;;;;;4854105;29;20513;-90
2021/12/20 03:14:39;;;;;;;26.67;12.07;;;2.20;99.90;;;;;;4852563;29;20452;-89
2021/12/20 03:17:13;;;;;;;23.73;12.10;;;2.30;99.90;;;;;;4861828;29;21183;-90
2021/12/20 03:19:39;;;;;;;19.17;11.20;;;2.20;99.90;;;;;;4865855;29;20450;-89
2021/12/20 03:22:06;;;;;;;22.20;12.60;;;2.20;99.90;;;;;;4855165;29;20465;-89
2021/12/20 03:24:33;;;;;;;18.77;11.03;;;2.20;99.90;;;;;;4852992;29;20449;-90
2021/12/20 03:26:59;;;;;;;25.43;12.83;;;2.30;99.90;;;;;;4854062;29;20820;-91
2021/12/20 03:29:25;;;;;;;24.60;11.90;;;2.20;99.90;;;;;;4853434;29;20454;-90
2021/12/20 03:31:51;;;;;;;22.07;12.00;;;2.30;99.90;;;;;;4850075;29;20785;-91
2021/12/20 03:34:18;;;;;;;26.07;13.07;;;2.30;99.90;;;;;;4856797;29;20673;-89
2021/12/20 03:36:43;;;;;;;22.07;11.80;;;2.30;99.90;;;;;;4870992;29;20486;-90
2021/12/20 03:39:10;;;;;;;19.30;11.13;;;2.30;99.90;;;;;;4852480;29;20461;-89
2021/12/20 03:41:36;;;;;;;25.00;12.27;;;2.30;99.90;;;;;;4847113;29;20190;-89
2021/12/20 03:44:04;;;;;;;18.60;11.80;;;2.30;99.90;;;;;;4842125;29;20512;-88
2021/12/20 03:46:29;;;;;;;21.13;11.10;;;2.30;99.90;;;;;;4859956;29;21108;-89
2021/12/20 03:48:55;;;;;;;19.50;10.57;;;2.20;99.90;;;;;;4853923;29;20457;-89
2021/12/20 03:51:20;;;;;;;21.60;12.30;;;2.30;99.90;;;;;;4866105;29;20205;-91
2021/12/20 03:53:46;;;;;;;21.40;11.33;;;2.30;99.90;;;;;;4864904;29;20204;-89
2021/12/20 03:56:12;;;;;;;24.30;10.87;;;2.40;99.90;;;;;;4848426;29;20257;-90
2021/12/20 03:58:38;;;;;;;18.70;12.00;;;2.30;99.90;;;;;;4845595;29;20281;-90
2021/12/20 04:01:10;;;;;;;23.83;12.20;;;2.30;99.90;;;;;;4849582;29;20245;-90
2021/12/20 04:03:37;;;;;;;25.00;11.27;;;2.30;99.90;;;;;;4864086;29;20286;-90
2021/12/20 04:06:05;;;;;;;21.77;11.93;;;2.40;99.90;;;;;;4848658;29;20843;-90
2021/12/20 04:08:31;;;;;;;21.60;11.93;;;2.40;99.90;;;;;;4849154;29;20470;-90
2021/12/20 04:10:57;;;;;;;25.23;11.97;;;2.40;99.90;;;;;;4840322;29;20461;-90
2021/12/20 04:13:24;;;;;;;19.40;11.47;;;2.40;99.90;;;;;;4850886;29;20972;-90
2021/12/20 04:15:50;;;;;;;20.27;11.87;;;2.40;99.90;;;;;;4845787;29;20489;-90
2021/12/20 04:18:18;;;;;;;19.90;11.73;;;2.50;99.90;;;;;;4868409;29;20454;-89
2021/12/20 04:20:46;;;;;;;20.97;11.60;;;2.50;99.90;;;;;;4850494;29;20514;-89
2021/12/20 04:23:14;;;;;;;21.73;11.77;;;2.60;99.90;;;;;;4848445;29;20202;-90
2021/12/20 04:25:40;;;;;;;20.03;11.40;;;2.60;99.90;;;;;;4851434;29;20808;-89
2021/12/20 04:28:06;;;;;;;21.30;12.33;;;2.50;99.90;;;;;;4850098;29;20457;-89
2021/12/20 04:30:32;;;;;;;19.70;11.13;;;2.50;99.90;;;;;;4849607;29;20675;-88
2021/12/20 04:32:59;;;;;;;22.73;11.60;;;2.50;99.90;;;;;;4855763;29;20223;-90
2021/12/20 04:35:24;;;;;;;21.00;11.37;;;2.40;99.90;;;;;;4866722;29;20956;-89
2021/12/20 04:37:51;;;;;;;22.40;11.40;;;2.50;99.90;;;;;;4853632;29;20465;-89
2021/12/20 04:40:20;;;;;;;18.53;12.03;;;2.40;99.90;;;;;;4851221;29;20675;-89
2021/12/20 04:42:51;;;;;;;22.40;11.90;;;2.40;99.90;;;;;;4862258;29;20445;-89
2021/12/20 04:45:17;;;;;;;21.77;12.77;;;2.30;99.90;;;;;;4853960;29;20465;-89
2021/12/20 04:47:44;;;;;;;22.23;11.43;;;2.30;99.90;;;;;;4862902;29;20454;-90
2021/12/20 04:50:10;;;;;;;22.83;12.80;;;2.30;99.90;;;;;;4847729;29;20477;-89
2021/12/20 04:52:41;;;;;;;23.80;11.40;;;2.30;99.90;;;;;;4850481;29;20535;-90
2021/12/20 04:55:07;;;;;;;27.13;11.13;;;2.30;99.90;;;;;;4854328;29;21176;-89
2021/12/20 04:57:33;;;;;;;24.80;12.93;;;2.30;99.90;;;;;;4857271;29;20469;-90
2021/12/20 04:59:59;;;;;;;23.73;12.27;;;2.30;99.90;;;;;;4842793;29;20448;-90
2021/12/20 05:02:25;;;;;;;23.40;12.03;;;2.30;99.90;;;;;;4844407;29;20193;-90
2021/12/20 05:04:51;;;;;;;22.13;12.17;;;2.30;99.90;;;;;;4847606;29;20567;-89
2021/12/20 05:07:17;;;;;;;26.67;11.50;;;2.40;99.90;;;;;;4846873;29;20449;-90
2021/12/20 05:09:43;;;;;;;22.13;12.83;;;2.40;99.90;;;;;;4848864;29;20222;-89
2021/12/20 05:12:14;;;;;;;24.60;12.33;;;2.40;99.90;;;;;;4851060;29;20454;-90
2021/12/20 05:14:42;;;;;;;21.43;12.30;;;2.40;99.90;;;;;;4849592;29;20738;-89
2021/12/20 05:17:09;;;;;;;22.30;11.80;;;2.40;99.90;;;;;;4867387;29;20469;-90
2021/12/20 05:19:35;;;;;;;26.97;13.30;;;2.40;99.90;;;;;;4849882;29;20848;-90
2021/12/20 05:22:01;;;;;;;24.83;13.30;;;2.30;99.90;;;;;;4855942;29;20597;-90
2021/12/20 05:24:27;;;;;;;22.07;11.93;;;2.30;99.90;;;;;;4846838;29;20453;-91
2021/12/20 05:26:53;;;;;;;20.23;12.30;;;2.40;99.90;;;;;;4836627;29;20239;-91
2021/12/20 05:29:18;;;;;;;23.37;12.60;;;2.40;99.90;;;;;;4848531;29;20189;-90
2021/12/20 05:31:44;;;;;;;22.60;11.67;;;2.40;99.90;;;;;;4857375;29;20196;-91
2021/12/20 05:34:10;;;;;;;22.37;11.70;;;2.40;99.90;;;;;;4852475;29;23610;-91
2021/12/20 05:36:35;;;;;;;25.57;12.83;;;2.40;99.90;;;;;;4865501;29;20252;-89
2021/12/20 05:39:02;;;;;;;21.20;11.80;;;2.40;99.90;;;;;;4852371;29;20735;-90
2021/12/20 05:41:29;;;;;;;21.73;13.20;;;2.40;99.90;;;;;;4847676;29;20943;-89
2021/12/20 05:43:54;;;;;;;21.30;12.60;;;2.40;99.90;;;;;;4851099;29;20559;-90
2021/12/20 05:46:20;;;;;;;22.30;11.17;;;2.40;99.90;;;;;;4861216;29;20452;-90
2021/12/20 05:48:46;;;;;;;24.13;12.30;;;2.40;99.90;;;;;;4850722;29;20201;-90
2021/12/20 05:51:12;;;;;;;26.37;12.87;;;2.40;99.90;;;;;;4846010;29;20192;-90
2021/12/20 05:53:40;;;;;;;21.63;11.70;;;2.40;99.90;;;;;;4862108;29;20195;-90
2021/12/20 05:56:06;;;;;;;27.47;13.27;;;2.40;99.90;;;;;;4841599;29;20225;-89
2021/12/20 05:58:32;;;;;;;24.80;12.27;;;2.30;99.90;;;;;;4850172;29;20453;-90
2021/12/20 06:01:01;;;;;;;22.57;11.73;;;2.20;99.90;;;;;;4846879;29;20194;-89
2021/12/20 06:03:27;;;;;;;27.30;13.60;;;2.20;99.90;;;;;;4852784;29;20452;-90
2021/12/20 06:05:53;;;;;;;20.47;10.87;;;2.30;99.90;;;;;;4850148;29;20840;-90
2021/12/20 06:08:18;;;;;;;20.33;11.57;;;2.30;99.90;;;;;;4848506;29;20192;-90
2021/12/20 06:10:44;;;;;;;20.87;12.00;;;2.40;99.90;;;;;;4851418;29;20211;-90
2021/12/20 06:13:13;;;;;;;20.40;10.93;;;2.40;99.90;;;;;;4859451;29;20186;-90
2021/12/20 06:15:41;;;;;;;24.07;13.10;;;2.30;99.90;;;;;;4850739;29;20232;-90
2021/12/20 06:18:11;;;;;;;21.63;11.73;;;2.30;99.90;;;;;;4869046;29;20453;-90
2021/12/20 06:20:44;;;;;;;20.57;12.17;;;2.30;99.90;;;;;;4870149;29;20476;-90
2021/12/20 06:23:11;;;;;;;21.97;12.37;;;2.30;99.90;;;;;;4855461;29;20454;-90
2021/12/20 06:25:37;;;;;;;26.03;11.70;;;2.30;99.90;;;;;;4850695;29;20492;-89
2021/12/20 06:28:03;;;;;;;22.17;12.10;;;2.30;99.90;;;;;;4852935;29;21813;-90
2021/12/20 06:30:29;;;;;;;22.63;12.20;;;2.30;99.90;;;;;;4853173;29;20445;-90
2021/12/20 06:32:54;;;;;;;24.13;12.07;;;2.30;99.90;;;;;;4854459;29;20478;-91
2021/12/20 06:35:20;;;;;;;20.80;10.30;;;2.30;99.90;;;;;;4861459;29;20870;-91
2021/12/20 06:37:58;;;;;;;20.90;12.83;;;2.30;99.90;;;;;;4854403;29;20201;-91
2021/12/20 06:40:49;;;;;;;20.57;11.50;;;2.30;99.90;;;;;;4866499;29;20276;-93
2021/12/20 06:43:15;;;;;;;23.40;11.80;;;2.30;99.90;;;;;;4859841;29;20483;-91
2021/12/20 06:45:46;;;;;;;21.93;12.80;;;2.30;99.90;;;;;;4865553;29;20458;-94
2021/12/20 06:48:11;;;;;;;21.47;12.60;;;2.40;99.90;;;;;;4860250;29;20540;-91
2021/12/20 06:50:45;;;;;;;21.97;11.93;;;2.40;99.90;;;;;;4843061;29;20454;-93
2021/12/20 06:53:43;;;;;;;21.30;12.30;;;2.40;99.90;;;;;;4848740;29;20213;-91
2021/12/20 06:57:23;;;;;;;;;;;;;;;;;;;;;
2021/12/20 06:59:56;;;;;;;19.50;11.57;;;2.50;99.90;;;;;;4849347;29;20536;-90
2021/12/20 07:03:17;;;;;;;;;;;;;;;;;;;;;
2021/12/20 07:06:03;;;;;;;;;;;;;;;;;;;;;
2021/12/20 07:08:43;;;;;;;;;;;;;;;;;;;;;
2021/12/20 07:11:30;;;;;;;;;;;;;;;;;;;;;
2021/12/20 07:13:59;;;;;;;23.70;12.03;;;2.50;99.90;;;;;;4853736;29;21077;-91
2021/12/20 07:16:25;;;;;;;20.37;12.30;;;2.50;99.90;;;;;;4837300;29;20541;-90
2021/12/20 07:21:53;;;;;;;20.43;11.77;;;2.50;99.90;;;;;;4827227;29;20200;-89
2021/12/20 07:24:18;;;;;;;20.87;11.83;;;2.50;99.90;;;;;;4852502;29;20530;-90
2021/12/20 07:26:44;;;;;;;20.90;11.80;;;2.50;99.90;;;;;;4838874;29;20422;-91
2021/12/20 07:29:10;;;;;;;19.33;12.27;;;2.60;99.90;;;;;;4847496;29;21487;-90
2021/12/20 07:31:36;;;;;;;39.07;18.80;;;2.60;99.90;;;;;;4858220;29;21292;-91
2021/12/20 07:34:02;;;;;;;31.53;15.83;;;2.70;99.90;;;;;;4856373;29;20193;-91
2021/12/20 07:36:35;;;;;;;29.50;15.67;;;2.60;99.90;;;;;;4835844;29;20224;-91
2021/12/20 07:39:01;;;;;;;20.23;13.37;;;2.70;99.90;;;;;;4857377;29;20484;-90
2021/12/20 07:41:26;;;;;;;22.03;12.83;;;2.70;99.90;;;;;;4854363;29;20628;-92
2021/12/20 07:43:52;;;;;;;20.30;12.80;;;2.80;99.90;;;;;;4830311;29;20197;-90
2021/12/20 07:46:19;;;;;;;20.07;12.87;;;2.80;99.90;;;;;;4855493;29;20224;-90
2021/12/20 07:48:49;;;;;;;25.23;13.90;;;2.80;99.90;;;;;;4836594;29;20592;-90
2021/12/20 07:51:15;;;;;;;18.93;12.50;;;2.80;99.90;;;;;;4835016;29;20987;-91
2021/12/20 07:53:44;;;;;;;21.67;11.43;;;2.80;99.90;;;;;;4835584;29;20473;-91
2021/12/20 07:56:12;;;;;;;17.80;11.10;;;2.90;99.90;;;;;;4852322;29;21901;-90
2021/12/20 07:58:42;;;;;;;21.90;14.30;;;2.90;99.90;;;;;;4833508;29;20466;-92
2021/12/20 08:03:58;;;;;;;18.30;11.53;;;3.00;99.90;;;;;;4859701;29;20595;-89
2021/12/20 08:06:24;;;;;;;17.07;10.73;;;3.00;99.90;;;;;;4849159;29;20469;-90
2021/12/20 08:08:50;;;;;;;22.03;12.43;;;2.90;99.90;;;;;;4849115;29;20213;-92
2021/12/20 08:11:39;;;;;;;18.80;12.60;;;2.90;99.90;;;;;;4844860;29;20243;-91
2021/12/20 08:14:07;;;;;;;18.97;11.20;;;2.90;99.90;;;;;;4842514;29;20208;-90
2021/12/20 08:16:33;;;;;;;23.27;12.67;;;2.90;99.90;;;;;;4834268;29;20489;-91
2021/12/20 08:19:03;;;;;;;18.90;11.23;;;2.90;99.90;;;;;;4867568;29;20613;-92
2021/12/20 08:21:32;;;;;;;20.40;11.90;;;2.90;99.90;;;;;;4850160;29;20461;-93
2021/12/20 08:24:54;;;;;;;20.33;12.53;;;2.90;99.90;;;;;;4856329;29;20556;-92
2021/12/20 08:31:54;;;;;;;;;;;;;;;;;;;;;
2021/12/20 08:37:58;;;;;;;100.07;77.47;;;2.90;99.90;;;;;;4806621;29;20541;-91
2021/12/20 08:40:27;;;;;;;30.13;20.50;;;3.10;99.90;;;;;;4851153;29;20450;-92
2021/12/20 08:46:13;;;;;;;17.63;11.20;;;3.10;99.90;;;;;;4854048;29;20461;-93
2021/12/20 08:48:44;;;;;;;21.40;11.70;;;3.00;99.90;;;;;;4851872;29;20545;-93
2021/12/20 08:51:10;;;;;;;22.60;11.57;;;3.00;99.90;;;;;;4864717;29;20457;-93
2021/12/20 08:53:40;;;;;;;20.33;12.47;;;3.10;99.90;;;;;;4856593;29;20495;-92
2021/12/20 08:56:09;;;;;;;22.77;12.30;;;3.20;99.90;;;;;;4859214;29;21010;-91
2021/12/20 08:58:35;;;;;;;17.40;11.77;;;3.20;99.90;;;;;;4842909;29;20813;-92
2021/12/20 09:01:28;;;;;;;18.10;11.30;;;3.40;99.90;;;;;;4852971;29;21144;-92
2021/12/20 09:03:53;;;;;;;19.80;11.67;;;3.50;99.90;;;;;;4853038;29;20507;-93
2021/12/20 09:06:23;;;;;;;21.30;13.47;;;3.50;99.90;;;;;;4827330;29;21004;-93
2021/12/20 09:08:49;;;;;;;19.77;13.80;;;3.40;99.90;;;;;;4861666;29;20591;-93
2021/12/20 09:11:15;;;;;;;20.13;12.80;;;3.30;99.90;;;;;;4858725;29;20828;-93
2021/12/20 09:13:41;;;;;;;19.70;12.17;;;3.40;99.90;;;;;;4848205;29;20723;-92
2021/12/20 09:16:07;;;;;;;20.03;13.43;;;3.40;99.90;;;;;;4860561;29;20227;-92
2021/12/20 09:18:33;;;;;;;23.03;13.93;;;3.40;99.90;;;;;;4837104;29;21220;-92
2021/12/20 09:20:58;;;;;;;25.70;14.03;;;3.40;99.90;;;;;;4838275;29;20202;-92
2021/12/20 09:23:30;;;;;;;25.40;16.03;;;3.40;99.90;;;;;;4833973;29;20197;-93
2021/12/20 09:25:55;;;;;;;19.97;12.53;;;3.50;99.90;;;;;;4839774;29;20726;-91
2021/12/20 09:28:30;;;;;;;22.43;13.53;;;3.80;99.90;;;;;;4839312;29;20525;-91
2021/12/20 09:30:55;;;;;;;19.00;13.40;;;3.90;99.90;;;;;;4858919;29;20868;-93
2021/12/20 09:33:21;;;;;;;22.10;12.90;;;4.00;99.90;;;;;;4856668;29;22476;-93
2021/12/20 09:35:50;;;;;;;23.23;13.13;;;4.10;99.90;;;;;;4842135;29;22914;-92
2021/12/20 09:38:20;;;;;;;24.47;12.50;;;4.30;99.90;;;;;;4838771;29;20587;-90
2021/12/20 09:44:21;;;;;;;18.43;12.30;;;4.40;99.90;;;;;;4851455;29;20542;-91
2021/12/20 09:47:01;;;;;;;;;;;;;;;;;;;;;
2021/12/20 09:52:53;;;;;;;19.93;11.93;;;4.80;99.90;;;;;;4843902;29;20511;-91
2021/12/20 09:55:19;;;;;;;21.43;12.10;;;5.00;99.90;;;;;;4846767;29;21566;-93
2021/12/20 09:58:04;;;;;;;18.13;11.30;;;5.30;99.90;;;;;;4848718;29;20464;-95
2021/12/20 10:00:31;;;;;;;17.50;11.60;;;5.30;99.90;;;;;;4843905;29;20499;-93
2021/12/20 10:07:12;;;;;;;21.33;12.90;;;5.40;99.90;;;;;;4816634;29;20456;-92
2021/12/20 10:12:52;;;;;;;15.90;11.33;;;5.30;99.90;;;;;;4842266;29;20556;-93
2021/12/20 10:15:17;;;;;;;16.40;11.37;;;5.30;99.90;;;;;;4839508;29;20563;-93
2021/12/20 10:18:15;;;;;;;16.23;10.70;;;5.40;99.90;;;;;;4859387;29;20469;-93
2021/12/20 10:24:44;;;;;;;19.00;11.70;;;5.60;99.90;;;;;;4852043;29;20459;-93
2021/12/20 10:27:29;;;;;;;17.93;11.63;;;5.40;99.90;;;;;;4844186;29;20457;-93
2021/12/20 10:29:57;;;;;;;15.80;11.27;;;5.30;99.90;;;;;;4845394;29;20467;-93
2021/12/20 10:32:43;;;;;;;18.17;11.07;;;5.20;99.90;;;;;;4863391;29;20477;-95
2021/12/20 10:35:29;;;;;;;17.67;11.57;;;5.20;99.90;;;;;;4843602;29;20477;-92
2021/12/20 10:38:00;;;;;;;24.17;13.40;;;5.10;99.90;;;;;;4839677;29;20544;-93
2021/12/20 10:40:26;;;;;;;17.13;11.60;;;5.00;99.90;;;;;;4861549;29;21179;-93
2021/12/20 10:42:53;;;;;;;19.77;12.77;;;5.50;99.90;;;;;;4839774;29;20516;-92
2021/12/20 10:45:20;;;;;;;16.23;11.00;;;6.30;99.90;;;;;;4838472;29;20460;-92
2021/12/20 10:47:52;;;;;;;14.80;9.73;;;7.00;99.90;;;;;;4839677;29;20545;-92
2021/12/20 10:50:23;;;;;;;12.73;9.00;;;8.40;99.90;;;;;;4832289;29;20490;-92
2021/12/20 10:52:49;;;;;;;13.93;10.50;;;10.60;99.90;;;;;;4843570;29;21187;-91
2021/12/20 10:55:43;;;;;;;11.93;9.07;;;12.40;99.90;;;;;;4843801;29;21212;-92
2021/12/20 10:58:40;;;;;;;14.60;9.40;;;12.80;98.40;;;;;;4840886;29;20850;-93
2021/12/20 11:01:20;;;;;;;12.73;9.97;;;11.90;99.50;;;;;;4836048;29;21642;-92
2021/12/20 11:04:18;;;;;;;10.80;7.90;;;11.80;99.90;;;;;;4858342;29;21136;-94
2021/12/20 11:09:36;;;;;;;11.27;7.40;;;10.00;99.90;;;;;;4850009;29;20688;-94
2021/12/20 11:12:05;;;;;;;12.70;8.83;;;9.30;99.90;;;;;;4840538;29;20453;-93
2021/12/20 11:14:34;;;;;;;10.40;7.63;;;8.80;99.90;;;;;;4840218;29;20457;-93
2021/12/20 11:17:02;;;;;;;19.70;9.27;;;8.50;99.90;;;;;;4837689;29;20488;-95
2021/12/20 11:19:36;;;;;;;14.33;9.23;;;8.00;99.90;;;;;;4843959;29;20456;-94
2021/12/20 11:22:24;;;;;;;15.23;10.20;;;7.20;99.90;;;;;;4845913;29;21923;-95
2021/12/20 11:24:53;;;;;;;16.47;12.07;;;6.70;99.90;;;;;;4830892;29;20649;-92
2021/12/20 11:27:23;;;;;;;14.27;10.07;;;6.30;99.90;;;;;;4832269;29;21737;-90
2021/12/20 11:29:51;;;;;;;17.83;11.17;;;6.00;99.90;;;;;;4834898;29;20901;-91
2021/12/20 11:32:18;;;;;;;16.17;11.20;;;5.70;99.90;;;;;;4839694;29;21202;-91
2021/12/20 11:34:44;;;;;;;17.40;10.57;;;5.50;99.90;;;;;;4842286;29;21167;-92
2021/12/20 11:37:13;;;;;;;21.37;12.97;;;5.40;99.90;;;;;;4844980;29;21846;-92
2021/12/20 11:39:39;;;;;;;23.13;12.90;;;5.30;99.90;;;;;;4839116;29;20539;-91
2021/12/20 11:42:07;;;;;;;19.23;12.37;;;5.30;99.90;;;;;;4838875;29;20564;-91
2021/12/20 11:44:35;;;;;;;21.57;11.47;;;5.30;99.90;;;;;;4838748;29;20476;-91
2021/12/20 11:47:03;;;;;;;16.30;9.80;;;5.30;99.90;;;;;;4843406;29;21196;-91
2021/12/20 11:49:31;;;;;;;19.40;10.00;;;5.10;99.90;;;;;;4840587;29;21071;-92
2021/12/20 11:52:15;;;;;;;13.93;9.70;;;5.10;99.90;;;;;;4853077;29;20469;-92
2021/12/20 11:54:42;;;;;;;15.57;9.47;;;5.10;99.90;;;;;;4835208;29;21191;-91
2021/12/20 11:57:30;;;;;;;16.27;10.60;;;5.20;99.90;;;;;;4836909;29;20684;-92
2021/12/20 12:00:04;;;;;;;15.10;10.80;;;5.40;99.90;;;;;;4833282;29;20469;-92
2021/12/20 12:02:32;;;;;;;15.60;9.97;;;6.60;99.90;;;;;;4841652;29;21246;-94
2021/12/20 12:05:05;;;;;;;15.00;10.27;;;8.60;99.90;;;;;;4840102;29;20453;-92
2021/12/20 12:07:38;;;;;;;14.63;10.27;;;11.30;99.90;;;;;;4846662;29;20473;-94
2021/12/20 12:10:15;;;;;;;12.17;9.60;;;13.20;96.70;;;;;;4858180;29;20475;-93
2021/12/20 12:13:14;;;;;;;;;;;;;;;;;;;;;
2021/12/20 12:16:37;;;;;;;16.03;11.00;;;15.20;92.20;;;;;;4860862;29;20489;-92
2021/12/20 12:19:16;;;;;;;;;;;;;;;;;;;;;
2021/12/20 12:22:01;;;;;;;12.57;9.50;;;15.00;90.20;;;;;;4867194;29;20455;-95
2021/12/20 12:25:05;;;;;;;13.07;9.70;;;15.20;88.80;;;;;;4845501;29;20657;-94
2021/12/20 12:30:19;;;;;;;9.83;7.70;;;14.70;89.90;;;;;;5174648;24;20611;-95
2021/12/20 12:32:58;;;;;;;;;;;;;;;;;;;;;
2021/12/20 12:35:52;;;;;;;;;;;;;;;;;;;;;
2021/12/20 12:38:32;;;;;;;11.47;8.40;;;15.90;83.60;;;;;;4855974;29;20472;-94
2021/12/20 12:41:15;;;;;;;13.73;9.60;;;15.30;86.30;;;;;;4841893;29;20493;-95
2021/12/20 12:43:56;;;;;;;9.33;7.80;;;16.30;83.10;;;;;;4835636;29;20695;-94
2021/12/20 12:46:41;;;;;;;10.30;8.17;;;17.60;76.30;;;;;;4852775;29;21113;-94
2021/12/20 12:49:22;;;;;;;10.20;8.33;;;18.60;76.20;;;;;;4841872;29;20542;-94
2021/12/20 12:51:53;;;;;;;9.93;7.40;;;18.90;68.50;;;;;;4843624;29;20481;-94
2021/12/20 12:54:34;;;;;;;9.20;8.03;;;18.10;71.60;;;;;;4844549;29;20571;-95
2021/12/20 12:57:24;;;;;;;11.80;8.23;;;17.50;72.20;;;;;;4854725;29;21510;-94
2021/12/20 12:59:50;;;;;;;13.00;8.37;;;16.50;73.90;;;;;;4828354;29;21118;-94
2021/12/20 13:02:22;;;;;;;10.47;7.80;;;15.70;76.60;;;;;;4847807;29;20465;-94
2021/12/20 13:04:58;;;;;;;11.93;8.80;;;15.60;77.80;;;;;;4853810;29;20197;-94
2021/12/20 13:07:28;;;;;;;9.43;7.70;;;15.30;77.10;;;;;;4844193;29;20469;-94
2021/12/20 13:10:03;;;;;;;9.27;8.03;;;15.40;79.30;;;;;;4856778;29;20682;-94
2021/12/20 13:12:56;;;;;;;11.27;7.40;;;17.10;73.60;;;;;;4843085;29;20481;-96
2021/12/20 13:23:03;;;;;;;6.77;5.53;;;16.10;69.70;;;;;;4821975;29;20825;-93
2021/12/20 13:25:52;;;;;;;9.40;6.10;;;14.60;71.00;;;;;;4812324;29;20499;-94
2021/12/20 13:28:21;;;;;;;8.77;6.40;;;12.00;77.30;;;;;;4814038;29;20464;-93
2021/12/20 13:30:56;;;;;;;7.67;4.70;;;9.80;90.50;;;;;;4809287;29;20481;-93
2021/12/20 13:33:36;;;;;;;9.40;5.43;;;8.40;92.40;;;;;;4807106;29;20499;-94
2021/12/20 13:36:10;;;;;;;10.10;5.77;;;7.70;94.50;;;;;;4807933;29;21060;-91
2021/12/20 13:57:50;;;;;;;11.40;5.30;;;6.20;99.90;;;;;;5372665;23;20614;-94
2021/12/20 17:08:23;;;;;;;8.93;4.40;;;0.90;99.90;;;;;;4937026;24;21017;-93
2021/12/20 17:10:52;;;;;;;5.80;4.10;;;1.00;99.90;;;;;;4811979;29;20462;-92
2021/12/20 17:13:25;;;;;;;4.97;3.50;;;1.00;99.90;;;;;;4851702;29;20466;-96
2021/12/20 17:23:28;;;;;;;8.67;4.60;;;0.80;99.90;;;;;;4881379;23;20829;-96
2021/12/20 17:26:03;;;;;;;8.93;4.50;;;0.80;99.90;;;;;;4925037;24;20337;-96
2021/12/20 17:31:12;;;;;;;8.03;4.50;;;0.60;99.90;;;;;;5344873;23;20512;-96
2021/12/20 17:33:50;;;;;;;7.40;4.90;;;0.60;99.90;;;;;;4850151;29;20509;-96
2021/12/20 17:36:18;;;;;;;8.93;5.73;;;0.60;99.90;;;;;;4857339;29;21007;-96
2021/12/20 17:38:49;;;;;;;8.13;5.27;;;0.70;99.90;;;;;;4958720;24;21105;-96
2021/12/20 17:41:18;;;;;;;8.87;4.47;;;0.70;99.90;;;;;;5060586;24;20506;-96
2021/12/20 17:43:45;;;;;;;7.20;4.00;;;0.60;99.90;;;;;;4998347;24;20474;-96
2021/12/20 17:46:27;;;;;;;7.20;4.97;;;0.60;99.90;;;;;;5159750;24;20555;-96
2021/12/20 17:49:01;;;;;;;9.20;5.13;;;0.60;99.90;;;;;;4873283;29;20490;-96